Time;durP1;ratioP1;P1;durP2;ratioP2;P2;SDS_P1;SDS_P2;PMS_P1;PMS_P2;Temp;Humidity;BMP_temperature;BMP_pressure;BME280_temperature;BME280_humidity;BME280_pressure;Samples;Min_cycle;Max_cycle;Signal;HPM_P1;HPM_P2
2020/12/10 00:01:09;;;;;;;49.03;26.27;;;4.40;99.90;;;;;;5048784;28;20199;-78
2020/12/10 00:03:36;;;;;;;50.53;26.87;;;4.40;99.90;;;;;;5048628;28;20200;-79
2020/12/10 00:06:03;;;;;;;47.33;25.23;;;4.40;99.90;;;;;;5047306;28;20206;-78
2020/12/10 00:08:31;;;;;;;48.83;25.33;;;4.40;99.90;;;;;;5046873;28;20196;-79
2020/12/10 00:10:57;;;;;;;46.40;25.57;;;4.30;99.90;;;;;;5046215;28;20199;-78
2020/12/10 00:13:24;;;;;;;48.60;23.80;;;4.30;99.90;;;;;;5048167;28;20227;-77
2020/12/10 00:15:50;;;;;;;42.13;23.20;;;4.30;99.90;;;;;;5049767;28;20196;-77
2020/12/10 00:18:17;;;;;;;41.83;23.23;;;4.30;99.90;;;;;;5048023;28;20231;-79
2020/12/10 00:20:44;;;;;;;37.23;21.10;;;4.30;99.90;;;;;;5047409;28;20203;-77
2020/12/10 00:23:11;;;;;;;40.13;22.90;;;4.30;99.90;;;;;;5048573;28;20214;-77
2020/12/10 00:25:38;;;;;;;35.87;21.43;;;4.30;99.90;;;;;;5048938;28;20196;-79
2020/12/10 00:28:05;;;;;;;36.43;21.93;;;4.20;99.90;;;;;;5052656;28;20196;-77
2020/12/10 00:30:31;;;;;;;39.57;22.30;;;4.30;99.90;;;;;;5059085;28;20198;-77
2020/12/10 00:32:58;;;;;;;40.00;23.83;;;4.20;99.90;;;;;;5072436;28;20226;-78
2020/12/10 00:35:24;;;;;;;41.30;23.50;;;4.20;99.90;;;;;;5072624;28;20202;-78
2020/12/10 00:37:51;;;;;;;45.07;24.00;;;4.20;99.90;;;;;;5060995;28;20672;-78
2020/12/10 00:40:17;;;;;;;44.33;24.67;;;4.30;99.90;;;;;;5046907;28;20204;-78
2020/12/10 00:42:45;;;;;;;42.67;24.33;;;4.30;99.90;;;;;;5046776;28;20200;-77
2020/12/10 00:45:11;;;;;;;39.63;23.80;;;4.30;99.90;;;;;;5046596;28;20249;-78
2020/12/10 00:47:38;;;;;;;40.53;22.93;;;4.30;99.90;;;;;;5047490;28;20200;-77
2020/12/10 00:50:04;;;;;;;37.50;22.27;;;4.30;99.90;;;;;;5061190;28;20715;-77
2020/12/10 00:52:31;;;;;;;39.33;23.23;;;4.20;99.90;;;;;;5071162;28;20226;-77
2020/12/10 00:54:57;;;;;;;43.57;24.70;;;4.20;99.90;;;;;;5072079;28;20203;-77
2020/12/10 00:57:24;;;;;;;41.60;25.70;;;4.20;99.90;;;;;;5070520;28;20200;-77
2020/12/10 00:59:51;;;;;;;38.90;24.13;;;4.20;99.90;;;;;;5072387;28;20202;-77
2020/12/10 01:02:17;;;;;;;44.17;24.67;;;4.20;99.90;;;;;;5048219;28;20207;-78
2020/12/10 01:04:44;;;;;;;47.00;26.13;;;4.20;99.90;;;;;;5048942;28;20207;-77
2020/12/10 01:07:10;;;;;;;43.23;27.37;;;4.20;99.90;;;;;;5046483;28;20195;-77
2020/12/10 01:09:37;;;;;;;40.23;25.07;;;4.20;99.90;;;;;;5046369;28;20278;-80
2020/12/10 01:12:04;;;;;;;37.13;24.70;;;4.20;99.90;;;;;;5046285;28;20234;-78
2020/12/10 01:14:31;;;;;;;40.57;24.00;;;4.10;99.90;;;;;;5047846;28;20272;-78
2020/12/10 01:16:59;;;;;;;37.67;22.43;;;4.10;99.90;;;;;;5046085;28;20219;-80
2020/12/10 01:19:25;;;;;;;33.03;21.73;;;4.10;99.90;;;;;;5047154;28;20231;-78
2020/12/10 01:21:52;;;;;;;33.70;21.93;;;4.10;99.90;;;;;;5045964;28;20595;-77
2020/12/10 01:24:18;;;;;;;33.30;21.77;;;4.10;99.90;;;;;;5046787;28;20619;-78
2020/12/10 01:26:45;;;;;;;36.73;21.60;;;4.00;99.90;;;;;;5045916;28;20207;-78
2020/12/10 01:29:11;;;;;;;36.87;22.37;;;4.00;99.90;;;;;;5045396;28;20649;-79
2020/12/10 01:31:38;;;;;;;39.30;25.03;;;3.90;99.90;;;;;;5045838;28;20635;-78
2020/12/10 01:34:05;;;;;;;39.57;25.70;;;3.90;99.90;;;;;;5047578;28;20196;-77
2020/12/10 01:36:32;;;;;;;42.20;26.17;;;3.90;99.90;;;;;;5046873;28;20203;-78
2020/12/10 01:38:59;;;;;;;40.20;24.67;;;3.80;99.90;;;;;;5056202;28;20241;-77
2020/12/10 01:41:29;;;;;;;36.53;23.53;;;3.80;99.90;;;;;;5045788;28;20650;-77
2020/12/10 01:44:03;;;;;;;31.47;22.10;;;3.70;99.90;;;;;;5050421;28;20282;-78
2020/12/10 01:46:30;;;;;;;32.53;22.03;;;3.70;99.90;;;;;;5051021;28;20249;-77
2020/12/10 01:48:56;;;;;;;31.53;21.33;;;3.70;99.90;;;;;;5049146;28;20195;-77
2020/12/10 01:51:24;;;;;;;29.33;19.97;;;3.60;99.90;;;;;;5049923;28;20204;-77
2020/12/10 01:53:50;;;;;;;30.37;19.97;;;3.60;99.90;;;;;;5050501;28;20191;-79
2020/12/10 01:56:18;;;;;;;28.60;19.10;;;3.50;99.90;;;;;;5049369;28;20199;-77
2020/12/10 01:58:44;;;;;;;29.87;20.57;;;3.50;99.90;;;;;;5050891;28;20306;-77
2020/12/10 02:01:12;;;;;;;27.97;18.43;;;3.50;99.90;;;;;;5049429;28;20285;-80
2020/12/10 02:03:39;;;;;;;28.83;20.00;;;3.40;99.90;;;;;;5051847;28;20722;-77
2020/12/10 02:06:05;;;;;;;27.77;18.73;;;3.40;99.90;;;;;;5050210;28;20222;-77
2020/12/10 02:08:33;;;;;;;25.83;18.57;;;3.50;99.90;;;;;;5049479;28;20200;-77
2020/12/10 02:10:59;;;;;;;25.07;17.63;;;3.50;99.90;;;;;;5049385;28;20195;-80
2020/12/10 02:13:25;;;;;;;22.20;16.93;;;3.60;99.90;;;;;;5049436;28;20219;-77
2020/12/10 02:15:52;;;;;;;25.30;17.03;;;3.60;99.90;;;;;;5050570;28;20661;-77
2020/12/10 02:18:19;;;;;;;23.47;16.53;;;3.60;99.90;;;;;;5049203;28;20241;-77
2020/12/10 02:20:45;;;;;;;25.77;16.93;;;3.60;99.90;;;;;;5050015;28;20199;-77
2020/12/10 02:23:13;;;;;;;22.80;15.93;;;3.60;99.90;;;;;;5048906;28;20207;-77
2020/12/10 02:25:39;;;;;;;23.47;16.73;;;3.60;99.90;;;;;;5049633;28;20915;-76
2020/12/10 02:28:10;;;;;;;22.73;16.90;;;3.60;99.90;;;;;;5050047;28;20199;-77
2020/12/10 02:30:37;;;;;;;21.63;16.67;;;3.60;99.90;;;;;;5049030;28;20289;-77
2020/12/10 02:33:05;;;;;;;23.97;16.20;;;3.60;99.90;;;;;;5049810;28;20640;-78
2020/12/10 02:35:32;;;;;;;19.33;15.27;;;3.60;99.90;;;;;;5051746;28;20611;-79
2020/12/10 02:38:00;;;;;;;18.80;14.40;;;3.50;99.90;;;;;;5050701;28;20722;-77
2020/12/10 02:40:30;;;;;;;18.83;13.33;;;3.50;99.90;;;;;;5049409;28;20204;-79
2020/12/10 02:42:58;;;;;;;18.20;13.47;;;3.50;99.90;;;;;;5048808;28;20819;-77
2020/12/10 02:45:25;;;;;;;19.87;14.27;;;3.50;99.90;;;;;;5048940;28;20953;-76
2020/12/10 02:47:52;;;;;;;18.57;13.80;;;3.40;99.90;;;;;;5048330;28;20423;-77
2020/12/10 02:50:19;;;;;;;19.53;14.43;;;3.40;99.90;;;;;;5048369;28;20260;-77
2020/12/10 02:52:46;;;;;;;18.07;13.87;;;3.40;99.90;;;;;;5048288;28;20227;-77
2020/12/10 02:55:13;;;;;;;18.13;14.03;;;3.40;99.90;;;;;;5049990;28;20217;-77
2020/12/10 02:57:40;;;;;;;20.97;15.00;;;3.40;99.90;;;;;;5047412;28;20229;-78
2020/12/10 03:00:09;;;;;;;18.03;13.87;;;3.40;99.90;;;;;;5048570;28;20221;-78
2020/12/10 03:02:35;;;;;;;19.80;14.83;;;3.30;99.90;;;;;;5048521;28;20230;-78
2020/12/10 03:05:02;;;;;;;18.53;13.53;;;3.40;99.90;;;;;;5048629;28;20246;-77
2020/12/10 03:07:28;;;;;;;17.70;13.67;;;3.40;99.90;;;;;;5047813;28;20438;-79
2020/12/10 03:09:55;;;;;;;18.73;13.23;;;3.40;99.90;;;;;;5048350;28;20203;-78
2020/12/10 03:12:21;;;;;;;19.23;13.40;;;3.50;99.90;;;;;;5048365;28;20231;-78
2020/12/10 03:14:49;;;;;;;22.03;12.63;;;3.50;99.90;;;;;;5049262;28;20222;-79
2020/12/10 03:17:15;;;;;;;16.63;12.47;;;3.50;99.90;;;;;;5049191;28;20199;-79
2020/12/10 03:19:42;;;;;;;17.83;13.13;;;3.50;99.90;;;;;;5047835;28;20234;-78
2020/12/10 03:22:12;;;;;;;19.40;12.60;;;3.50;99.90;;;;;;5047614;28;20207;-78
2020/12/10 03:24:39;;;;;;;20.00;12.87;;;3.40;99.90;;;;;;5048687;28;20656;-79
2020/12/10 03:27:06;;;;;;;18.13;12.07;;;3.40;99.90;;;;;;5047379;28;20204;-80
2020/12/10 03:29:33;;;;;;;17.97;12.27;;;3.40;99.90;;;;;;5048121;28;20265;-78
2020/12/10 03:32:00;;;;;;;17.37;12.53;;;3.30;99.90;;;;;;5049043;28;20223;-79
2020/12/10 03:34:27;;;;;;;15.67;11.57;;;3.30;99.90;;;;;;5046490;28;20289;-79
2020/12/10 03:36:55;;;;;;;18.93;12.10;;;3.40;99.90;;;;;;5050092;28;20203;-78
2020/12/10 03:39:23;;;;;;;16.93;12.50;;;3.40;99.90;;;;;;5046847;28;20730;-79
2020/12/10 03:41:51;;;;;;;17.57;12.83;;;3.40;99.90;;;;;;5050396;28;20593;-78
2020/12/10 03:44:18;;;;;;;17.80;12.57;;;3.40;99.90;;;;;;5046739;28;20200;-79
2020/12/10 03:46:45;;;;;;;16.53;11.90;;;3.50;99.90;;;;;;5047333;28;20734;-79
2020/12/10 03:49:13;;;;;;;17.07;12.23;;;3.50;99.90;;;;;;5047198;28;20301;-78
2020/12/10 03:51:40;;;;;;;18.10;11.83;;;3.50;99.90;;;;;;5048383;28;20203;-77
2020/12/10 03:54:09;;;;;;;17.60;12.53;;;3.50;99.90;;;;;;5048571;28;20203;-78
2020/12/10 03:56:36;;;;;;;19.33;13.53;;;3.50;99.90;;;;;;5049574;28;20293;-79
2020/12/10 03:59:04;;;;;;;18.77;12.60;;;3.50;99.90;;;;;;5051729;28;21179;-78
2020/12/10 04:01:31;;;;;;;19.47;14.43;;;3.50;99.90;;;;;;5047972;28;20249;-78
2020/12/10 04:03:57;;;;;;;17.50;13.20;;;3.50;99.90;;;;;;5047868;28;20195;-78
2020/12/10 04:06:26;;;;;;;19.90;12.87;;;3.50;99.90;;;;;;5046286;28;20683;-78
2020/12/10 04:08:52;;;;;;;18.90;13.43;;;3.50;99.90;;;;;;5046963;28;20195;-77
2020/12/10 04:11:19;;;;;;;18.77;13.87;;;3.60;99.90;;;;;;5048324;28;20199;-79
2020/12/10 04:13:46;;;;;;;18.13;13.27;;;3.50;99.90;;;;;;5048645;28;20269;-77
2020/12/10 04:16:12;;;;;;;18.87;13.43;;;3.60;99.90;;;;;;5046660;28;20610;-78
2020/12/10 04:18:40;;;;;;;18.50;13.00;;;3.60;99.90;;;;;;5046864;28;20277;-78
2020/12/10 04:21:07;;;;;;;17.43;12.93;;;3.50;99.90;;;;;;5046807;28;20252;-79
2020/12/10 04:23:35;;;;;;;15.70;12.60;;;3.50;99.90;;;;;;5047648;28;20277;-78
2020/12/10 04:26:01;;;;;;;15.33;12.13;;;3.50;99.90;;;;;;5048562;28;20602;-79
2020/12/10 04:28:28;;;;;;;15.53;12.43;;;3.50;99.90;;;;;;5047154;28;20207;-78
2020/12/10 04:30:54;;;;;;;17.57;12.60;;;3.50;99.90;;;;;;5048573;28;20253;-78
2020/12/10 04:33:21;;;;;;;15.90;11.77;;;3.50;99.90;;;;;;5046837;28;20284;-78
2020/12/10 04:35:47;;;;;;;16.37;11.67;;;3.50;99.90;;;;;;5052337;28;20238;-78
2020/12/10 04:38:14;;;;;;;17.93;12.10;;;3.50;99.90;;;;;;5046607;28;20196;-78
2020/12/10 04:40:41;;;;;;;15.73;11.10;;;3.50;99.90;;;;;;5047837;28;20196;-78
2020/12/10 04:43:10;;;;;;;15.37;10.80;;;3.50;99.90;;;;;;5046609;28;20204;-78
2020/12/10 04:45:37;;;;;;;16.23;11.60;;;3.50;99.90;;;;;;5046353;28;21119;-78
2020/12/10 04:48:04;;;;;;;16.77;11.33;;;3.50;99.90;;;;;;5046837;28;20249;-79
2020/12/10 04:50:33;;;;;;;14.20;10.53;;;3.50;99.90;;;;;;5047717;28;20202;-77
2020/12/10 04:52:59;;;;;;;15.57;12.17;;;3.50;99.90;;;;;;5047654;28;20251;-77
2020/12/10 04:55:26;;;;;;;16.17;11.70;;;3.50;99.90;;;;;;5051569;28;20230;-77
2020/12/10 04:57:55;;;;;;;15.27;10.97;;;3.50;99.90;;;;;;5064656;28;20191;-78
2020/12/10 05:00:23;;;;;;;16.10;11.17;;;3.50;99.90;;;;;;5070018;28;20188;-78
2020/12/10 05:02:49;;;;;;;14.53;11.03;;;3.50;99.90;;;;;;5071275;28;20649;-78
2020/12/10 05:05:26;;;;;;;15.70;11.23;;;3.50;99.90;;;;;;5092337;28;20243;-78
2020/12/10 05:07:54;;;;;;;14.77;11.10;;;3.60;99.90;;;;;;5069113;28;20192;-79
2020/12/10 05:10:21;;;;;;;15.63;11.57;;;3.60;99.90;;;;;;5046433;28;20200;-78
2020/12/10 05:12:49;;;;;;;13.20;10.67;;;3.60;99.90;;;;;;5046344;28;20215;-77
2020/12/10 05:15:31;;;;;;;14.27;10.60;;;3.60;99.90;;;;;;5045489;28;20199;-77
2020/12/10 05:18:04;;;;;;;14.07;10.43;;;3.60;99.90;;;;;;5048573;28;20249;-79
2020/12/10 05:20:41;;;;;;;17.60;11.10;;;3.60;99.90;;;;;;5049462;28;20631;-77
2020/12/10 05:23:08;;;;;;;14.27;10.23;;;3.60;99.90;;;;;;5050657;28;20198;-78
2020/12/10 05:25:49;;;;;;;17.00;10.83;;;3.60;99.90;;;;;;5050223;28;20341;-78
2020/12/10 05:28:16;;;;;;;14.53;9.97;;;3.60;99.90;;;;;;5052486;28;20191;-79
2020/12/10 05:30:45;;;;;;;13.93;10.40;;;3.60;99.90;;;;;;5051611;28;20224;-78
2020/12/10 05:33:13;;;;;;;14.23;10.90;;;3.60;99.90;;;;;;5051547;28;20268;-78
2020/12/10 05:35:40;;;;;;;16.73;10.43;;;3.60;99.90;;;;;;5049856;28;20223;-78
2020/12/10 05:38:10;;;;;;;14.57;10.30;;;3.60;99.90;;;;;;5049488;28;20196;-78
2020/12/10 05:40:36;;;;;;;16.73;10.77;;;3.60;99.90;;;;;;5048564;28;21221;-80
2020/12/10 05:43:04;;;;;;;13.10;9.40;;;3.70;99.90;;;;;;5050803;28;20653;-80
2020/12/10 05:45:30;;;;;;;13.00;9.50;;;3.70;99.90;;;;;;5049846;28;20227;-79
2020/12/10 05:47:59;;;;;;;12.30;9.30;;;3.70;99.90;;;;;;5051429;28;20219;-79
2020/12/10 05:50:27;;;;;;;14.83;10.07;;;3.70;99.90;;;;;;5049923;28;20203;-78
2020/12/10 05:53:00;;;;;;;12.37;8.97;;;3.70;99.90;;;;;;5049712;28;20219;-79
2020/12/10 05:55:28;;;;;;;13.87;9.73;;;3.70;99.90;;;;;;5048855;28;20337;-79
2020/12/10 05:57:55;;;;;;;12.93;9.63;;;3.70;99.90;;;;;;5049346;28;20300;-79
2020/12/10 06:00:21;;;;;;;13.90;9.80;;;3.70;99.90;;;;;;5054191;28;20668;-78
2020/12/10 06:02:49;;;;;;;12.70;9.63;;;3.70;99.90;;;;;;5049857;28;20191;-79
2020/12/10 06:05:18;;;;;;;13.77;10.43;;;3.70;99.90;;;;;;5048520;28;20252;-79
2020/12/10 06:08:02;;;;;;;12.90;9.47;;;3.70;99.90;;;;;;5051826;28;20207;-79
2020/12/10 06:10:30;;;;;;;12.73;8.93;;;3.70;99.90;;;;;;5051239;28;20532;-78
2020/12/10 06:12:59;;;;;;;12.17;9.20;;;3.70;99.90;;;;;;5048027;28;21078;-78
2020/12/10 06:15:27;;;;;;;11.87;8.33;;;3.70;99.90;;;;;;5049763;28;20226;-79
2020/12/10 06:18:08;;;;;;;10.57;8.10;;;3.70;99.90;;;;;;5050994;28;20203;-79
2020/12/10 06:20:37;;;;;;;11.80;8.67;;;3.80;99.90;;;;;;5049746;28;20200;-79
2020/12/10 06:23:37;;;;;;;11.90;8.40;;;3.80;99.90;;;;;;5049239;28;20656;-78
2020/12/10 06:26:37;;;;;;;10.93;8.10;;;3.80;99.90;;;;;;5048316;28;20195;-79
2020/12/10 06:29:25;;;;;;;17.20;8.97;;;3.70;99.90;;;;;;5047257;28;20248;-79
2020/12/10 06:32:09;;;;;;;13.43;8.73;;;3.70;99.90;;;;;;5050432;28;20253;-78
2020/12/10 06:34:41;;;;;;;11.93;8.47;;;3.70;99.90;;;;;;5050299;28;20199;-79
2020/12/10 06:37:26;;;;;;;10.53;8.20;;;3.70;99.90;;;;;;5047681;28;20249;-79
2020/12/10 06:39:55;;;;;;;12.17;8.10;;;3.70;99.90;;;;;;5050713;28;20304;-78
2020/12/10 06:42:22;;;;;;;10.10;8.03;;;3.70;99.90;;;;;;5048589;28;20271;-79
2020/12/10 06:44:48;;;;;;;11.17;8.20;;;3.70;99.90;;;;;;5048444;28;20210;-79
2020/12/10 06:47:15;;;;;;;12.20;8.73;;;3.70;99.90;;;;;;5048465;28;20672;-79
2020/12/10 06:49:42;;;;;;;11.90;8.60;;;3.70;99.90;;;;;;5047375;28;20242;-79
2020/12/10 06:52:10;;;;;;;13.77;9.23;;;3.70;99.90;;;;;;5047992;28;20200;-79
2020/12/10 06:55:07;;;;;;;15.47;9.53;;;3.80;99.90;;;;;;5050170;28;20192;-78
2020/12/10 06:57:51;;;;;;;15.77;9.33;;;3.80;99.90;;;;;;5048717;28;20196;-78
2020/12/10 07:00:38;;;;;;;14.37;8.97;;;3.80;99.90;;;;;;5049165;28;20205;-78
2020/12/10 07:03:10;;;;;;;13.67;9.67;;;3.80;99.90;;;;;;5049169;28;20303;-77
2020/12/10 07:05:36;;;;;;;13.40;9.63;;;3.70;99.90;;;;;;5048140;28;20206;-78
2020/12/10 07:08:07;;;;;;;15.20;9.83;;;3.80;99.90;;;;;;5048065;28;20611;-78
2020/12/10 07:10:39;;;;;;;14.87;10.63;;;3.70;99.90;;;;;;5047157;28;20233;-78
2020/12/10 07:13:05;;;;;;;11.97;9.73;;;3.70;99.90;;;;;;5047255;28;20296;-78
2020/12/10 07:15:32;;;;;;;13.80;9.80;;;3.70;99.90;;;;;;5047953;28;20249;-78
2020/12/10 07:18:01;;;;;;;13.13;10.53;;;3.60;99.90;;;;;;5046472;28;20794;-78
2020/12/10 07:20:28;;;;;;;14.37;10.07;;;3.60;99.90;;;;;;5047870;28;20218;-78
2020/12/10 07:22:55;;;;;;;13.57;10.37;;;3.50;99.90;;;;;;5047261;28;20225;-78
2020/12/10 07:25:22;;;;;;;13.63;10.00;;;3.50;99.90;;;;;;5051051;28;20244;-77
2020/12/10 07:27:49;;;;;;;14.27;10.80;;;3.50;99.90;;;;;;5047022;28;20699;-77
2020/12/10 07:30:17;;;;;;;13.63;10.20;;;3.40;99.90;;;;;;5047101;28;20200;-77
2020/12/10 07:32:44;;;;;;;13.23;10.43;;;3.40;99.90;;;;;;5051320;28;20235;-78
2020/12/10 07:35:11;;;;;;;15.27;11.03;;;3.30;99.90;;;;;;5048095;28;20549;-77
2020/12/10 07:37:39;;;;;;;15.07;11.23;;;3.20;99.90;;;;;;5048600;28;21033;-79
2020/12/10 07:40:16;;;;;;;15.83;10.47;;;3.20;99.90;;;;;;5051716;28;20199;-78
2020/12/10 07:42:43;;;;;;;16.97;11.63;;;3.20;99.90;;;;;;5049095;28;20248;-78
2020/12/10 07:45:11;;;;;;;16.50;11.80;;;3.20;99.90;;;;;;5046094;28;20656;-78
2020/12/10 07:47:38;;;;;;;15.50;10.50;;;3.20;99.90;;;;;;5048439;28;20717;-77
2020/12/10 07:50:20;;;;;;;19.40;11.57;;;3.20;99.90;;;;;;5046570;28;20238;-77
2020/12/10 07:52:48;;;;;;;17.80;11.70;;;3.20;99.90;;;;;;5047439;28;20609;-77
2020/12/10 07:55:20;;;;;;;16.37;10.90;;;3.20;99.90;;;;;;5047993;28;20578;-77
2020/12/10 07:57:56;;;;;;;17.07;10.57;;;3.20;99.90;;;;;;5047722;28;20563;-77
2020/12/10 08:00:27;;;;;;;15.87;11.13;;;3.20;99.90;;;;;;5047312;28;20199;-77
2020/12/10 08:03:04;;;;;;;15.60;10.50;;;3.30;99.90;;;;;;5047867;28;20249;-77
2020/12/10 08:05:31;;;;;;;19.13;11.50;;;3.30;99.90;;;;;;5046583;28;20209;-80
2020/12/10 08:07:58;;;;;;;18.03;10.93;;;3.40;99.90;;;;;;5046781;28;20246;-79
2020/12/10 08:10:26;;;;;;;14.17;9.90;;;3.40;99.90;;;;;;5046874;28;20198;-79
2020/12/10 08:13:15;;;;;;;16.80;11.10;;;3.40;99.90;;;;;;5047458;28;20219;-78
2020/12/10 08:15:44;;;;;;;16.40;10.90;;;3.50;99.90;;;;;;5050974;28;20201;-79
2020/12/10 08:18:13;;;;;;;18.50;11.50;;;3.50;99.90;;;;;;5047409;28;20244;-79
2020/12/10 08:20:44;;;;;;;17.43;11.27;;;3.60;99.90;;;;;;5046552;28;20209;-78
2020/12/10 08:23:11;;;;;;;17.10;10.43;;;3.60;99.90;;;;;;5047531;28;20226;-78
2020/12/10 08:25:38;;;;;;;16.23;10.90;;;3.70;99.90;;;;;;5047839;28;20199;-78
2020/12/10 08:28:06;;;;;;;18.17;10.33;;;3.70;99.90;;;;;;5046440;28;20203;-79
2020/12/10 08:30:33;;;;;;;17.27;11.47;;;3.70;99.90;;;;;;5050175;28;20199;-77
2020/12/10 08:33:00;;;;;;;15.60;10.23;;;3.70;99.90;;;;;;5045937;28;20631;-78
2020/12/10 08:35:28;;;;;;;16.10;10.63;;;3.70;99.90;;;;;;5048074;28;20200;-77
2020/12/10 08:37:54;;;;;;;16.47;10.47;;;3.80;99.90;;;;;;5046623;28;20196;-78
2020/12/10 08:40:26;;;;;;;15.37;10.83;;;3.80;99.90;;;;;;5047229;28;21109;-78
2020/12/10 08:42:53;;;;;;;16.57;10.00;;;3.80;99.90;;;;;;5045534;28;20234;-78
2020/12/10 08:45:31;;;;;;;15.67;9.83;;;3.80;99.90;;;;;;5047676;28;20195;-78
2020/12/10 08:48:00;;;;;;;15.43;10.47;;;3.90;99.90;;;;;;5046707;28;20204;-79
2020/12/10 08:50:27;;;;;;;13.30;9.87;;;3.90;99.90;;;;;;5047231;28;20203;-78
2020/12/10 08:53:05;;;;;;;13.47;9.33;;;4.00;99.90;;;;;;5050632;28;20219;-79
2020/12/10 08:55:37;;;;;;;13.83;10.20;;;4.00;99.90;;;;;;5052845;28;20256;-73
2020/12/10 08:58:05;;;;;;;15.77;9.53;;;4.00;99.90;;;;;;5051704;28;20561;-78
2020/12/10 09:00:32;;;;;;;13.80;9.23;;;4.00;99.90;;;;;;5054545;28;20641;-77
2020/12/10 09:02:59;;;;;;;15.03;9.77;;;4.10;99.90;;;;;;5051970;28;20343;-76
2020/12/10 09:05:26;;;;;;;17.10;10.57;;;4.10;99.90;;;;;;5049620;28;20195;-77
2020/12/10 09:07:52;;;;;;;13.73;9.97;;;4.20;99.90;;;;;;5051824;28;20379;-77
2020/12/10 09:10:20;;;;;;;15.60;10.20;;;4.20;99.90;;;;;;5054261;28;20680;-77
2020/12/10 09:12:46;;;;;;;13.57;10.23;;;4.20;99.90;;;;;;5051204;28;20263;-78
2020/12/10 09:15:13;;;;;;;14.53;9.87;;;4.30;99.90;;;;;;5051148;28;20199;-77
2020/12/10 09:17:39;;;;;;;13.57;9.13;;;4.40;99.90;;;;;;5050795;28;23031;-77
2020/12/10 09:20:07;;;;;;;13.87;9.10;;;4.40;99.90;;;;;;5053672;28;20203;-77
2020/12/10 09:22:33;;;;;;;17.67;9.93;;;4.50;99.90;;;;;;5049888;28;20671;-76
2020/12/10 09:24:59;;;;;;;14.13;9.40;;;4.50;99.90;;;;;;5051674;28;20196;-76
2020/12/10 09:27:26;;;;;;;14.67;9.63;;;4.60;99.90;;;;;;5049585;28;20199;-76
2020/12/10 09:29:52;;;;;;;14.43;10.00;;;4.70;99.90;;;;;;5054872;28;20192;-74
2020/12/10 09:32:19;;;;;;;12.27;9.37;;;4.80;99.90;;;;;;5057584;28;20653;-76
2020/12/10 09:34:45;;;;;;;13.27;9.10;;;4.80;99.90;;;;;;5050733;28;20317;-76
2020/12/10 09:37:13;;;;;;;13.47;9.63;;;5.00;99.90;;;;;;5056321;28;20196;-77
2020/12/10 09:39:39;;;;;;;14.43;8.90;;;5.10;99.90;;;;;;5051664;28;20313;-78
2020/12/10 09:42:06;;;;;;;10.63;8.50;;;5.20;99.90;;;;;;5050424;28;20203;-77
2020/12/10 09:44:33;;;;;;;13.33;9.13;;;5.40;99.90;;;;;;5049862;28;20677;-76
2020/12/10 09:46:59;;;;;;;11.23;7.87;;;5.50;99.90;;;;;;5049749;28;20243;-76
2020/12/10 09:49:26;;;;;;;11.50;8.43;;;5.60;99.90;;;;;;5050587;28;20195;-77
2020/12/10 09:51:55;;;;;;;11.43;8.13;;;5.60;99.90;;;;;;5050288;28;20199;-77
2020/12/10 09:54:34;;;;;;;14.30;8.37;;;5.70;99.90;;;;;;5048753;28;20220;-75
2020/12/10 09:57:09;;;;;;;9.43;7.60;;;5.70;99.90;;;;;;5050687;28;20196;-75
2020/12/10 09:59:38;;;;;;;10.63;7.70;;;5.70;99.90;;;;;;5053305;28;20285;-75
2020/12/10 10:02:04;;;;;;;10.60;7.97;;;5.70;99.90;;;;;;5049232;28;20931;-75
2020/12/10 10:04:31;;;;;;;10.87;8.10;;;5.70;99.90;;;;;;5049068;28;20207;-78
2020/12/10 10:06:57;;;;;;;10.80;7.67;;;5.60;99.90;;;;;;5048863;28;20664;-75
2020/12/10 10:09:27;;;;;;;10.77;8.13;;;5.60;99.90;;;;;;5049858;28;20712;-74
2020/12/10 10:11:53;;;;;;;14.17;8.67;;;5.60;99.90;;;;;;5048142;28;20210;-75
2020/12/10 10:14:20;;;;;;;12.33;8.13;;;5.50;99.90;;;;;;5049563;28;20227;-77
2020/12/10 10:16:46;;;;;;;11.23;8.57;;;5.50;99.90;;;;;;5048741;28;20219;-75
2020/12/10 10:19:13;;;;;;;11.83;8.37;;;5.60;99.90;;;;;;5048673;28;20220;-74
2020/12/10 10:21:39;;;;;;;10.57;7.93;;;5.60;99.90;;;;;;5048089;28;20244;-74
2020/12/10 10:24:07;;;;;;;11.70;8.77;;;5.60;99.90;;;;;;5049428;28;20276;-75
2020/12/10 10:26:35;;;;;;;13.77;8.77;;;5.70;99.90;;;;;;5048803;28;20195;-75
2020/12/10 10:29:05;;;;;;;11.03;8.17;;;5.80;99.90;;;;;;5049049;28;20241;-75
2020/12/10 10:31:31;;;;;;;13.17;8.30;;;5.90;99.90;;;;;;5047790;28;20663;-75
2020/12/10 10:33:58;;;;;;;11.53;8.37;;;5.90;99.90;;;;;;5048567;28;20251;-76
2020/12/10 10:36:24;;;;;;;14.33;8.63;;;5.90;99.90;;;;;;5050791;28;20207;-76
2020/12/10 10:38:51;;;;;;;11.43;8.87;;;5.80;99.90;;;;;;5051944;28;20200;-76
2020/12/10 10:41:17;;;;;;;12.27;8.77;;;5.80;99.90;;;;;;5049283;28;20203;-76
2020/12/10 10:43:45;;;;;;;13.37;8.70;;;5.80;99.90;;;;;;5050126;28;20214;-76
2020/12/10 10:46:17;;;;;;;11.17;8.73;;;5.80;99.90;;;;;;5047527;28;20700;-76
2020/12/10 10:48:44;;;;;;;13.73;9.23;;;5.80;99.90;;;;;;5049708;28;20299;-75
2020/12/10 10:51:11;;;;;;;13.33;9.20;;;5.80;99.90;;;;;;5047802;28;20295;-74
2020/12/10 10:53:38;;;;;;;10.90;8.23;;;5.90;99.90;;;;;;5050149;28;20223;-76
2020/12/10 10:56:05;;;;;;;11.93;8.50;;;6.00;99.90;;;;;;5052686;28;20232;-71
2020/12/10 10:58:32;;;;;;;13.53;9.07;;;6.10;99.90;;;;;;5062810;28;20196;-74
2020/12/10 11:00:59;;;;;;;11.00;8.70;;;6.20;99.90;;;;;;5051039;28;20195;-76
2020/12/10 11:03:25;;;;;;;12.50;9.20;;;6.20;99.90;;;;;;5047178;28;20699;-77
2020/12/10 11:05:54;;;;;;;11.43;8.53;;;6.30;99.90;;;;;;5049159;28;20199;-77
2020/12/10 11:08:21;;;;;;;14.53;8.63;;;6.40;99.90;;;;;;5046718;28;20645;-80
2020/12/10 11:10:47;;;;;;;13.70;9.30;;;6.40;99.90;;;;;;5049206;28;20203;-79
2020/12/10 11:13:14;;;;;;;12.10;9.13;;;6.40;99.90;;;;;;5047635;28;20223;-78
2020/12/10 11:15:40;;;;;;;12.90;8.80;;;6.40;99.90;;;;;;5049330;28;20691;-77
2020/12/10 11:18:08;;;;;;;15.83;9.50;;;6.40;99.90;;;;;;5050491;28;20235;-76
2020/12/10 11:20:34;;;;;;;12.63;9.33;;;6.40;99.90;;;;;;5049042;28;20206;-75
2020/12/10 11:23:01;;;;;;;12.70;9.37;;;6.40;99.90;;;;;;5047115;28;20261;-75
2020/12/10 11:25:27;;;;;;;10.97;9.23;;;6.40;99.90;;;;;;5047426;28;20215;-76
2020/12/10 11:27:54;;;;;;;17.07;10.03;;;6.20;99.90;;;;;;5048529;28;20200;-76
2020/12/10 11:30:20;;;;;;;11.97;9.43;;;6.20;99.90;;;;;;5048820;28;20191;-76
2020/12/10 11:32:47;;;;;;;10.83;8.70;;;6.20;99.90;;;;;;5048101;28;20199;-77
2020/12/10 11:35:15;;;;;;;13.57;8.97;;;6.20;99.90;;;;;;5048502;28;20203;-77
2020/12/10 11:37:41;;;;;;;12.77;9.03;;;6.20;99.90;;;;;;5048405;28;20191;-75
2020/12/10 11:40:08;;;;;;;12.67;9.30;;;6.20;99.90;;;;;;5046675;28;20200;-75
2020/12/10 11:42:34;;;;;;;14.00;9.47;;;6.40;99.90;;;;;;5048191;28;20195;-76
2020/12/10 11:45:04;;;;;;;11.93;9.23;;;6.50;99.90;;;;;;5047058;28;20554;-77
2020/12/10 11:47:30;;;;;;;11.67;9.03;;;6.50;99.90;;;;;;5046746;28;20210;-76
2020/12/10 11:49:57;;;;;;;14.60;9.63;;;6.50;99.90;;;;;;5050854;28;20242;-76
2020/12/10 11:52:24;;;;;;;13.33;9.30;;;6.70;99.90;;;;;;5047645;28;21519;-76
2020/12/10 11:54:51;;;;;;;11.07;8.60;;;6.70;99.90;;;;;;5048135;28;20226;-74
2020/12/10 11:57:17;;;;;;;13.67;9.47;;;6.70;99.90;;;;;;5046799;28;20196;-73
2020/12/10 11:59:44;;;;;;;11.43;8.77;;;6.70;99.90;;;;;;5049432;28;20293;-76
2020/12/10 12:02:11;;;;;;;14.40;9.53;;;6.70;99.90;;;;;;5069921;28;20606;-73
2020/12/10 12:04:38;;;;;;;13.03;9.80;;;6.70;99.90;;;;;;5088074;28;20198;-75
2020/12/10 12:07:04;;;;;;;11.90;8.70;;;6.80;99.90;;;;;;5076800;28;20702;-76
2020/12/10 12:09:32;;;;;;;12.73;9.27;;;7.00;99.90;;;;;;5071274;28;20683;-76
2020/12/10 12:12:01;;;;;;;10.60;8.47;;;7.50;99.90;;;;;;5071618;28;20781;-76
2020/12/10 12:14:28;;;;;;;10.87;8.10;;;8.30;99.90;;;;;;5071471;28;20222;-75
2020/12/10 12:16:54;;;;;;;10.03;8.37;;;9.20;99.90;;;;;;5071356;28;20207;-75
2020/12/10 12:19:21;;;;;;;11.43;7.60;;;10.00;99.90;;;;;;5070865;28;20284;-76
2020/12/10 12:21:47;;;;;;;11.60;8.13;;;10.40;99.90;;;;;;5070515;28;20199;-76
2020/12/10 12:24:14;;;;;;;12.47;8.67;;;10.50;99.90;;;;;;5070822;28;20264;-75
2020/12/10 12:26:41;;;;;;;10.23;7.93;;;10.40;99.90;;;;;;5071972;28;20202;-75
2020/12/10 12:29:07;;;;;;;11.60;8.13;;;10.50;99.90;;;;;;5071165;28;20336;-75
2020/12/10 12:31:36;;;;;;;9.67;7.47;;;10.90;99.90;;;;;;5071354;28;20231;-75
2020/12/10 12:34:02;;;;;;;11.27;8.20;;;11.00;99.90;;;;;;5060811;28;20231;-75
2020/12/10 12:36:29;;;;;;;9.67;7.93;;;11.20;99.90;;;;;;5051844;28;20606;-75
2020/12/10 12:38:55;;;;;;;9.97;7.73;;;11.70;99.90;;;;;;5048130;28;20226;-74
2020/12/10 12:41:26;;;;;;;10.57;8.23;;;12.10;99.90;;;;;;5053510;28;20199;-75
2020/12/10 12:43:53;;;;;;;9.97;7.90;;;11.70;99.90;;;;;;5072271;28;20218;-74
2020/12/10 12:46:22;;;;;;;9.47;7.97;;;11.60;99.90;;;;;;5071115;28;20195;-76